Terminal Aerodrome Forecast
Issued by NWS

Home | Current Version | Previous Version | Graphics & Text | Print | Product List | Glossary On
Versions: 1 2 3 4 5 6 7 8 9 10 11 12 13 14 15 16 17 18
000
FTUS43 KGRB 300057 AAA
TAFATW
TAF AMD
KATW 300057Z 3001/3024 06010G20KT P6SM OVC100
     FM300300 04013G22KT P6SM VCSH OVC050
     FM300800 04015G26KT P6SM -RA OVC025
     FM301200 04015G26KT 6SM -RA OVC013
     FM301500 04017G28KT 3SM -RA BR OVC006
     FM302200 06019G30KT 2SM -RA BR OVC004=

USA.gov is the U.S. government's official web portal to all federal, state and local government web resources and services.